createdAt,value
2017-11-05T00:02:13.246Z,34.83
2017-11-05T00:04:44.300Z,35.90
2017-11-05T00:07:14.011Z,33.13
2017-11-05T00:09:43.988Z,32.33
2017-11-05T00:12:14.207Z,33.30
2017-11-05T00:14:44.105Z,32.90
2017-11-05T00:17:12.613Z,32.33
2017-11-05T00:19:41.452Z,32.17
2017-11-05T00:22:11.116Z,33.83
2017-11-05T00:24:39.705Z,33.83
2017-11-05T00:27:08.233Z,35.43
2017-11-05T00:29:38.756Z,32.53
2017-11-05T00:32:08.952Z,33.27
2017-11-05T00:34:38.183Z,33.93
2017-11-05T00:37:09.492Z,32.70
2017-11-05T00:39:38.816Z,33.07
2017-11-05T00:42:07.716Z,32.70
2017-11-05T00:44:38.405Z,30.20
2017-11-05T00:47:09.257Z,32.10
2017-11-05T00:49:39.840Z,32.23
2017-11-05T00:52:10.055Z,31.20
2017-11-05T00:54:39.306Z,30.00
2017-11-05T00:57:08.043Z,32.13
2017-11-05T00:59:39.712Z,29.17
2017-11-05T01:02:08.903Z,27.43
2017-11-05T01:04:38.749Z,29.27
2017-11-05T01:07:09.293Z,31.37
2017-11-05T01:09:37.759Z,31.23
2017-11-05T01:12:11.608Z,30.07
2017-11-05T01:14:41.140Z,29.17
2017-11-05T01:17:11.944Z,30.80
2017-11-05T01:19:44.529Z,32.53
2017-11-05T01:22:13.768Z,30.97
2017-11-05T01:24:45.937Z,29.10
2017-11-05T01:27:15.144Z,31.23
2017-11-05T01:29:45.740Z,29.83
2017-11-05T01:32:14.356Z,30.70
2017-11-05T01:34:43.162Z,30.90
2017-11-05T01:37:12.780Z,29.73
2017-11-05T01:39:41.258Z,30.10
2017-11-05T01:42:10.211Z,30.70
2017-11-05T01:44:41.153Z,29.00
2017-11-05T01:47:11.489Z,29.20
2017-11-05T01:49:44.112Z,30.37
2017-11-05T01:52:14.043Z,28.90
2017-11-05T01:54:45.703Z,30.17
2017-11-05T01:57:14.122Z,29.40
2017-11-05T01:59:43.179Z,30.20
2017-11-05T02:02:12.373Z,31.17
2017-11-05T02:04:40.986Z,30.40
2017-11-05T02:07:09.703Z,31.07
2017-11-05T02:09:41.038Z,29.73
2017-11-05T02:12:10.275Z,29.67
2017-11-05T02:14:40.455Z,29.50
2017-11-05T02:17:09.521Z,30.47
2017-11-05T02:19:41.233Z,30.37
2017-11-05T02:22:12.367Z,29.50
2017-11-05T02:24:43.160Z,28.80
2017-11-05T02:27:11.844Z,31.93
2017-11-05T02:29:43.597Z,32.17
2017-11-05T02:32:13.492Z,30.63
2017-11-05T02:34:42.760Z,31.30
2017-11-05T02:37:12.256Z,29.53
2017-11-05T02:39:41.772Z,31.17
2017-11-05T02:42:11.979Z,27.77
2017-11-05T02:44:41.128Z,29.60
2017-11-05T02:47:10.320Z,29.10
2017-11-05T02:49:38.834Z,29.07
2017-11-05T02:52:11.292Z,28.07
2017-11-05T02:54:39.925Z,25.90
2017-11-05T02:57:08.646Z,26.07
2017-11-05T02:59:39.529Z,28.23
2017-11-05T03:02:08.131Z,27.97
2017-11-05T03:04:36.964Z,26.60
2017-11-05T03:07:06.812Z,28.30
2017-11-05T03:09:38.395Z,25.83
2017-11-05T03:12:07.402Z,26.50
2017-11-05T03:14:38.183Z,27.87
2017-11-05T03:17:10.812Z,26.20
2017-11-05T03:19:40.217Z,28.47
2017-11-05T03:22:09.557Z,24.07
2017-11-05T03:24:38.185Z,23.97
2017-11-05T03:27:07.160Z,22.63
2017-11-05T03:29:36.941Z,25.77
2017-11-05T03:32:07.845Z,26.43
2017-11-05T03:34:36.903Z,27.97
2017-11-05T03:37:06.264Z,27.17
2017-11-05T03:39:37.112Z,25.47
2017-11-05T03:42:07.080Z,26.37
2017-11-05T03:44:37.668Z,26.37
2017-11-05T03:47:07.197Z,25.30
2017-11-05T03:49:36.294Z,23.10
2017-11-05T03:52:07.999Z,29.93
2017-11-05T03:54:36.814Z,27.13
2017-11-05T03:57:07.416Z,30.03
2017-11-05T03:59:38.108Z,29.00
2017-11-05T04:02:11.890Z,30.50
2017-11-05T04:04:40.556Z,30.97
2017-11-05T04:07:10.032Z,31.50
2017-11-05T04:09:38.696Z,33.70
2017-11-05T04:12:12.384Z,33.00
2017-11-05T04:14:41.983Z,32.67
2017-11-05T04:17:10.628Z,31.67
2017-11-05T04:19:40.232Z,30.90
2017-11-05T04:22:09.567Z,32.57
2017-11-05T04:24:38.378Z,37.13
2017-11-05T04:27:08.803Z,34.53
2017-11-05T04:29:39.704Z,34.70
2017-11-05T04:32:10.021Z,35.33
2017-11-05T04:34:38.678Z,35.20
2017-11-05T04:37:07.302Z,34.90
2017-11-05T04:42:16.896Z,31.27
2017-11-05T04:44:45.670Z,32.73
2017-11-05T04:47:14.201Z,31.33
2017-11-05T04:49:44.514Z,34.17
2017-11-05T04:52:14.436Z,33.27
2017-11-05T04:54:43.672Z,34.90
2017-11-05T04:57:12.394Z,34.57
2017-11-05T04:59:41.772Z,35.47
2017-11-05T05:02:10.449Z,35.50
2017-11-05T05:04:39.052Z,35.47
2017-11-05T05:07:10.295Z,36.33
2017-11-05T05:09:40.132Z,38.77
2017-11-05T05:12:15.444Z,37.30
2017-11-05T05:14:44.446Z,39.37
2017-11-05T05:17:13.783Z,41.20
2017-11-05T05:19:45.705Z,39.93
2017-11-05T05:22:14.395Z,42.33
2017-11-05T05:24:43.241Z,40.93
2017-11-05T05:27:11.860Z,44.47
2017-11-05T05:29:41.842Z,43.57
2017-11-05T05:32:10.511Z,42.37
2017-11-05T05:34:39.769Z,42.57
2017-11-05T05:37:08.304Z,44.30
2017-11-05T05:39:36.872Z,41.20
2017-11-05T05:42:05.427Z,41.70
2017-11-05T05:44:35.280Z,42.50
2017-11-05T05:47:07.485Z,42.70
2017-11-05T05:49:36.132Z,42.80
2017-11-05T05:52:04.992Z,47.87
2017-11-05T05:54:34.378Z,44.80
2017-11-05T05:57:03.821Z,43.47
2017-11-05T05:59:32.451Z,44.10
2017-11-05T06:02:02.058Z,47.40
2017-11-05T06:04:30.784Z,47.97
2017-11-05T06:06:59.472Z,45.50
2017-11-05T06:09:28.064Z,44.93
2017-11-05T06:11:56.587Z,46.83
2017-11-05T06:14:25.201Z,44.97
2017-11-05T06:16:55.235Z,40.17
2017-11-05T06:19:24.367Z,35.60
2017-11-05T06:21:52.851Z,29.03
2017-11-05T06:24:21.619Z,29.17
2017-11-05T06:26:50.185Z,23.97
2017-11-05T06:29:18.787Z,24.07
